Flight Track Log - Related Links

Times and Time Zones

All times are in EDT time to prevent confusion due to time zone crossing. See the DAL1979 flight status page for this flight to view local times or setup timezone preferences in your user account.

Time Position Orientation Groundspeed Altitude Reporting Facility
EDT Latitude Longitude Course Direction KTS MPH feet Rate Location/Type
Tue 03:58:17 PM 28.4150 -81.2970 164° South 166 191 200  Level FlightAware ADS-B
Tue 03:58:47 PM 28.3920 -81.3020 191° South 165 190 1,500 2,133 Climbing FlightAware ADS-B
Tue 03:59:02 PM 28.3810 -81.3100 213° Southwest 190 219 1,800 800 Climbing FlightAware ADS-B
Tue 03:59:17 PM 28.3730 -81.3220 233° Southwest 208 239 1,900 960 Climbing FlightAware ADS-B
Tue 03:59:27 PM 28.3720 -81.3330 264° West 221 254 2,200 2,100 Climbing FlightAware ADS-B
Tue 03:59:57 PM 28.3730 -81.3700 272° West 245 282 3,300 2,267 Climbing FlightAware ADS-B
Tue 04:00:12 PM 28.3730 -81.3900 270° West 255 293 3,900 2,850 Climbing FlightAware ADS-B
Tue 04:00:37 PM 28.3740 -81.4220 272° West 254 292 5,200 3,000 Climbing FlightAware ADS-B
Tue 04:01:02 PM 28.3750 -81.4570 272° West 260 299 6,400 2,900 Climbing FlightAware ADS-B
Tue 04:01:37 PM 28.3740 -81.5060 269° West 265 305 8,100 2,880 Climbing FlightAware ADS-B
Tue 04:02:17 PM 28.3740 -81.5600 270° West 264 304 10,000 2,100 Climbing FlightAware ADS-B
Tue 04:02:57 PM 28.3730 -81.6190 269° West 304 350 10,900 1,275 Climbing FlightAware ADS-B
Tue 04:03:37 PM 28.3840 -81.6860 281° West 341 392 11,700 1,694 Climbing FlightAware ADS-B
Tue 04:04:22 PM 28.4050 -81.7660 287° West 355 409 13,300 2,200 Climbing FlightAware ADS-B
Tue 04:05:07 PM 28.4260 -81.8470 286° West 361 415 15,000 2,259 Climbing FlightAware ADS-B
Tue 04:05:47 PM 28.4460 -81.9210 287° West 365 420 16,500 2,100 Climbing FlightAware ADS-B
Tue 04:06:27 PM 28.4660 -81.9970 287° West 375 432 17,800 1,976 Climbing FlightAware ADS-B
Tue 04:07:12 PM 28.4900 -82.0830 288° West 379 436 19,300 1,835 Climbing FlightAware ADS-B
Tue 04:07:52 PM 28.5090 -82.1550 287° West 387 445 20,400 1,800 Climbing FlightAware ADS-B
Tue 04:08:32 PM 28.5330 -82.2390 288° West 390 449 21,700 1,765 Climbing FlightAware ADS-B
Tue 04:09:17 PM 28.5600 -82.3290 289° West 397 457 22,900 1,482 Climbing FlightAware ADS-B
Tue 04:09:57 PM 28.5830 -82.4090 288° West 406 467 23,800 1,412 Climbing FlightAware ADS-B
Tue 04:10:42 PM 28.6100 -82.5000 289° West 408 470 24,900 1,467 Climbing FlightAware ADS-B
Tue 04:11:27 PM 28.6370 -82.5940 288° West 413 475 26,000 776 Climbing FlightAware ADS-B
Tue 04:12:07 PM 28.6610 -82.6770 288° West 416 479 26,000  Level FlightAware ADS-B
Tue 04:12:47 PM 28.7050 -82.7480 305° West 425 489 26,000  Level FlightAware ADS-B
Tue 04:13:32 PM 28.7840 -82.8030 329° Northwest 438 504 26,000  Level FlightAware ADS-B
Tue 04:14:12 PM 28.8510 -82.8420 333° Northwest 437 503 26,000  Level FlightAware ADS-B
Tue 04:14:52 PM 28.9240 -82.8840 333° Northwest 433 498 26,000 494 Level FlightAware ADS-B
Tue 04:15:37 PM 29.0040 -82.9310 333° Northwest 437 503 26,700 675 Climbing FlightAware ADS-B
Tue 04:16:12 PM 29.0610 -82.9650 332° Northwest 437 503 26,900 1,059 Climbing FlightAware ADS-B
Tue 04:17:02 PM 29.1630 -83.0240 333° Northwest 456 525 28,200 1,267 Climbing FlightAware ADS-B
Tue 04:17:42 PM 29.2380 -83.0680 333° Northwest 455 524 28,800 1,275 Climbing FlightAware ADS-B
Tue 04:18:22 PM 29.3150 -83.1140 332° Northwest 457 526 29,900 1,482 Climbing FlightAware ADS-B
Tue 04:19:07 PM 29.3980 -83.1630 333° Northwest 452 520 30,900 1,271 Climbing FlightAware ADS-B
Tue 04:19:47 PM 29.4740 -83.2080 333° Northwest 450 518 31,700 776 Climbing FlightAware ADS-B
Tue 04:20:32 PM 29.5580 -83.2570 333° Northwest 452 520 32,000 212 Climbing FlightAware ADS-B
Tue 04:21:12 PM 29.6330 -83.3020 332° Northwest 450 518 32,000  Level FlightAware ADS-B
Tue 04:21:52 PM 29.7070 -83.3450 333° Northwest 439 505 32,000  Level FlightAware ADS-B
Tue 04:22:37 PM 29.7870 -83.3930 332° Northwest 440 506 32,000  Level FlightAware ADS-B
Tue 04:23:17 PM 29.8630 -83.4380 333° Northwest 439 505 32,000  Level FlightAware ADS-B
Tue 04:24:02 PM 29.9450 -83.4870 333° Northwest 440 506 32,000  Level FlightAware ADS-B
Tue 04:24:42 PM 30.0200 -83.5320 333° Northwest 441 507 32,000  Level FlightAware ADS-B
Tue 04:25:27 PM 30.1010 -83.5800 333° Northwest 450 518 32,000  Level FlightAware ADS-B
Tue 04:26:02 PM 30.1620 -83.6170 332° Northwest 450 518 32,000  Level FlightAware ADS-B
Tue 04:26:42 PM 30.2250 -83.6550 332° Northwest 450 518 32,000  Level FlightAware ADS-B
Tue 04:27:22 PM 30.3130 -83.7060 333° Northwest 448 516 32,000  Level FlightAware ADS-B
Tue 04:28:07 PM 30.3970 -83.7570 332° Northwest 445 512 32,000  Level FlightAware ADS-B
Tue 04:28:52 PM 30.4850 -83.8100 333° Northwest 444 511 32,000  Level FlightAware ADS-B
Tue 04:29:32 PM 30.5560 -83.8520 333° Northwest 443 510 32,000  Level FlightAware ADS-B
Tue 04:30:32 PM 30.6630 -83.9170 332° Northwest 441 507 32,000  Level FlightAware ADS-B
Tue 04:31:12 PM 30.7340 -83.9590 333° Northwest 439 505 32,000  Level FlightAware ADS-B
Tue 04:31:52 PM 30.8100 -84.0060 332° Northwest 437 503 32,000  Level FlightAware ADS-B
Tue 04:32:37 PM 30.8890 -84.0530 333° Northwest 435 501 32,000  Level FlightAware ADS-B
Tue 04:33:12 PM 30.9460 -84.0880 332° Northwest 434 499 32,000  Level FlightAware ADS-B
Tue 04:34:12 PM 30.9850 -84.1120 332° Northwest 433 498 32,000  Level FlightAware ADS-B
Tue 04:34:52 PM 31.0460 -84.1490 333° Northwest 433 498 32,000  Level FlightAware ADS-B
Tue 04:35:32 PM 31.1060 -84.1870 332° Northwest 433 498 32,000  Level FlightAware ADS-B
Tue 04:36:22 PM 31.1810 -84.2330 332° Northwest 433 498 32,000  Level FlightAware ADS-B
Tue 04:37:02 PM 31.2410 -84.2710 332° Northwest 433 498 32,000  Level FlightAware ADS-B
Tue 04:37:42 PM 31.3010 -84.3080 332° Northwest 433 498 32,000  Level FlightAware ADS-B
Tue 04:38:22 PM 31.3610 -84.3460 332° Northwest 433 498 32,000  Level FlightAware ADS-B
Tue 04:39:02 PM 31.4210 -84.3830 332° Northwest 433 498 32,000  Level FlightAware ADS-B
Tue 04:39:52 PM 31.4970 -84.4300 332° Northwest 433 498 32,000  Level FlightAware ADS-B
Tue 04:40:32 PM 31.5570 -84.4680 332° Northwest 433 498 32,000  Level FlightAware ADS-B
Tue 04:41:12 PM 31.6170 -84.5050 332° Northwest 433 498 32,000  Level FlightAware ADS-B
Tue 04:42:02 PM 31.6920 -84.5520 332° Northwest 433 498 32,000  Level FlightAware ADS-B
Tue 04:42:32 PM 31.7370 -84.5800 332° Northwest 433 498 32,000  Level FlightAware ADS-B
Tue 04:43:12 PM 31.7970 -84.6180 332° Northwest 433 498 32,000  Level FlightAware ADS-B
Tue 04:46:47 PM 32.3680 -84.9600 333° Northwest 418 481 32,000  Level FlightAware ADS-B
Tue 04:47:32 PM 32.4450 -85.0090 332° Northwest 417 480 32,000  Level FlightAware ADS-B
Tue 04:48:12 PM 32.5030 -85.0450 332° Northwest 417 480 32,000  Level FlightAware ADS-B
Tue 04:48:52 PM 32.5610 -85.0820 332° Northwest 417 480 32,000  Level FlightAware ADS-B
Tue 04:49:42 PM 32.6720 -85.1500 333° Northwest 416 479 32,000  Level FlightAware ADS-B
Tue 04:50:22 PM 32.7330 -85.1880 332° Northwest 417 480 32,000  Level FlightAware ADS-B
Tue 04:51:02 PM 32.8080 -85.2350 332° Northwest 418 481 32,000  Level FlightAware ADS-B
Tue 04:51:52 PM 32.8920 -85.2880 332° Northwest 418 481 32,000 420 Level FlightAware ADS-B
Tue 04:52:42 PM 32.9750 -85.3400 332° Northwest 419 482 32,700 918 Climbing FlightAware ADS-B
Tue 04:53:17 PM 33.0370 -85.3800 332° Northwest 419 482 33,300 600 Climbing FlightAware ADS-B
Tue 04:54:02 PM 33.1050 -85.4230 332° Northwest 419 482 33,500 494 Climbing FlightAware ADS-B
Tue 04:54:42 PM 33.1890 -85.4760 332° Northwest 405 466 34,000 353 Climbing FlightAware ADS-B
Tue 04:55:27 PM 33.2530 -85.5180 331° Northwest 405 466 34,000  Level FlightAware ADS-B
Tue 04:56:12 PM 33.3270 -85.5650 332° Northwest 405 466 34,000 727 Level FlightAware ADS-B
Tue 04:58:12 PM 33.5330 -85.6950 332° Northwest 405 466 36,000 727 Climbing FlightAware ADS-B
Tue 04:58:57 PM 33.6010 -85.7400 331° Northwest 405 466 36,000  Level FlightAware ADS-B
Tue 04:59:37 PM 33.6570 -85.7770 331° Northwest 405 466 36,000  Level FlightAware ADS-B
Tue 05:00:17 PM 33.7130 -85.8140 331° Northwest 405 466 36,000  Level FlightAware ADS-B
Tue 05:00:52 PM 33.8155 -85.8767 333° Northwest 420 483 36,000  Level FlightAware ADS-B
Tue 05:01:25 PM 33.8724 -85.9134 332° Northwest 421 484 36,000  Level FlightAware ADS-B
Tue 05:01:56 PM 33.9262 -85.9482 332° Northwest 421 484 36,000  Level FlightAware ADS-B
Tue 05:02:27 PM 33.9792 -85.9825 332° Northwest 421 484 36,000  Level FlightAware ADS-B
Tue 05:03:02 PM 34.0393 -86.0217 332° Northwest 420 483 36,000  Level FlightAware ADS-B
Tue 05:03:33 PM 34.0925 -86.0563 332° Northwest 418 481 36,000  Level FlightAware ADS-B
Tue 05:04:04 PM 34.1448 -86.0906 332° Northwest 415 478 36,000  Level FlightAware ADS-B
Tue 05:04:36 PM 34.1992 -86.1261 332° Northwest 414 476 36,000  Level FlightAware ADS-B
Tue 05:05:43 PM 34.3125 -86.2000 332° Northwest 412 474 36,000  Level FlightAware ADS-B
Tue 05:06:19 PM 34.3720 -86.2390 332° Northwest 409 471 36,000  Level FlightAware ADS-B
Tue 05:11:22 PM 34.8720 -86.5700 332° Northwest 413 475 36,000  Level FlightAware ADS-B
Tue 05:11:57 PM 34.9260 -86.6060 331° Northwest 414 476 36,000  Level FlightAware ADS-B
Tue 05:12:48 PM 35.0217 -86.6705 331° Northwest 417 480 36,000  Level FlightAware ADS-B
Tue 05:13:23 PM 35.0808 -86.7104 331° Northwest 419 482 36,000  Level FlightAware ADS-B
Tue 05:14:16 PM 35.1707 -86.7708 331° Northwest 421 484 36,000  Level FlightAware ADS-B
Tue 05:14:48 PM 35.2249 -86.8074 331° Northwest 422 486 36,000  Level FlightAware ADS-B
Tue 05:15:20 PM 35.2795 -86.8444 331° Northwest 423 487 36,000  Level FlightAware ADS-B
Tue 05:15:50 PM 35.3314 -86.8797 331° Northwest 426 490 36,000  Level FlightAware ADS-B
Tue 05:16:20 PM 35.3838 -86.9150 331° Northwest 427 491 36,000  Level FlightAware ADS-B
Tue 05:16:50 PM 35.4357 -86.9504 331° Northwest 427 491 36,000  Level FlightAware ADS-B
Tue 05:17:21 PM 35.4897 -86.9873 331° Northwest 427 491 36,000  Level FlightAware ADS-B
Tue 05:17:54 PM 35.5461 -87.0257 331° Northwest 428 493 36,000  Level FlightAware ADS-B
Tue 05:18:25 PM 35.5998 -87.0624 331° Northwest 428 493 36,000  Level FlightAware ADS-B
Tue 05:18:55 PM 35.6521 -87.0982 331° Northwest 428 493 36,000  Level FlightAware ADS-B
Tue 05:19:57 PM 35.7560 -87.1700 331° Northwest 427 491 36,000  Level FlightAware ADS-B
Tue 05:20:42 PM 35.8330 -87.2230 331° Northwest 427 491 36,000  Level FlightAware ADS-B
Tue 05:21:22 PM 35.9030 -87.2710 331° Northwest 426 490 36,000  Level FlightAware ADS-B
Tue 05:22:02 PM 35.9690 -87.3170 331° Northwest 426 490 36,000  Level FlightAware ADS-B
Tue 05:22:47 PM 36.0500 -87.3730 331° Northwest 428 493 36,000  Level FlightAware ADS-B
Tue 05:23:27 PM 36.1200 -87.4220 331° Northwest 429 494 36,000  Level FlightAware ADS-B
Tue 05:24:07 PM 36.1900 -87.4710 331° Northwest 430 495 36,000  Level FlightAware ADS-B
Tue 05:24:52 PM 36.2660 -87.5240 331° Northwest 432 497 36,000  Level FlightAware ADS-B
Tue 05:25:32 PM 36.3380 -87.5740 331° Northwest 434 499 36,000  Level FlightAware ADS-B
Tue 05:26:17 PM 36.4140 -87.6280 330° Northwest 435 501 36,000  Level FlightAware ADS-B
Tue 05:26:57 PM 36.4860 -87.6780 331° Northwest 436 502 36,000  Level FlightAware ADS-B
Tue 05:27:42 PM 36.5620 -87.7320 330° Northwest 438 504 36,000  Level FlightAware ADS-B
Tue 05:28:22 PM 36.6350 -87.7830 331° Northwest 438 504 36,000  Level FlightAware ADS-B
Tue 05:29:02 PM 36.7050 -87.8330 330° Northwest 439 505 36,000  Level FlightAware ADS-B
Tue 05:29:47 PM 36.7870 -87.8920 330° Northwest 441 507 36,000  Level FlightAware ADS-B
Tue 05:30:27 PM 36.8560 -87.9410 330° Northwest 442 509 36,000  Level FlightAware ADS-B
Tue 05:31:12 PM 36.9370 -87.9990 330° Northwest 443 510 36,000  Level FlightAware ADS-B
Tue 05:31:52 PM 37.0060 -88.0480 330° Northwest 443 510 36,000  Level FlightAware ADS-B
Tue 05:32:32 PM 37.0790 -88.1000 330° Northwest 443 510 36,000  Level FlightAware ADS-B
Tue 05:33:12 PM 37.1470 -88.1500 330° Northwest 443 510 36,000  Level FlightAware ADS-B
Tue 05:34:07 PM 37.2470 -88.2220 330° Northwest 443 510 36,000  Level FlightAware ADS-B
Tue 05:34:52 PM 37.3280 -88.2800 330° Northwest 443 510 36,000  Level FlightAware ADS-B
Tue 05:35:37 PM 37.4090 -88.3390 330° Northwest 442 509 36,000  Level FlightAware ADS-B
Tue 05:36:17 PM 37.4770 -88.3890 330° Northwest 442 509 36,000  Level FlightAware ADS-B
Tue 05:37:02 PM 37.5590 -88.4480 330° Northwest 441 507 36,000  Level FlightAware ADS-B
Tue 05:37:42 PM 37.6310 -88.5010 330° Northwest 441 507 36,000  Level FlightAware ADS-B
Tue 05:38:22 PM 37.7000 -88.5510 330° Northwest 442 509 36,000  Level FlightAware ADS-B
Tue 05:39:07 PM 37.7790 -88.6090 330° Northwest 441 507 36,000  Level FlightAware ADS-B
Tue 05:39:47 PM 37.8490 -88.6610 330° Northwest 436 502 36,000  Level FlightAware ADS-B
Tue 05:40:27 PM 37.9200 -88.7130 330° Northwest 435 501 36,000  Level FlightAware ADS-B
Tue 05:41:12 PM 37.9990 -88.7710 330° Northwest 435 501 36,000  Level FlightAware ADS-B
Tue 05:41:52 PM 38.0680 -88.8230 329° Northwest 438 504 36,000  Level FlightAware ADS-B
Tue 05:42:37 PM 38.1460 -88.8800 330° Northwest 440 506 36,000  Level FlightAware ADS-B
Tue 05:43:17 PM 38.2150 -88.9320 329° Northwest 440 506 36,000  Level FlightAware ADS-B
Tue 05:44:02 PM 38.2980 -88.9930 330° Northwest 441 507 36,000  Level FlightAware ADS-B
Tue 05:44:42 PM 38.3650 -89.0440 329° Northwest 441 507 36,000  Level FlightAware ADS-B
Tue 05:45:37 PM 38.4640 -89.1180 330° Northwest 440 506 36,000  Level FlightAware ADS-B
Tue 05:46:22 PM 38.5420 -89.1760 330° Northwest 440 506 36,000  Level FlightAware ADS-B
Tue 05:47:32 PM 38.6570 -89.2640 329° Northwest 438 504 36,000  Level FlightAware ADS-B
Tue 05:48:22 PM 38.7460 -89.3310 330° Northwest 437 503 36,000  Level FlightAware ADS-B
Tue 05:49:07 PM 38.8270 -89.3910 330° Northwest 439 505 36,000  Level FlightAware ADS-B
Tue 05:49:47 PM 38.9020 -89.4480 329° Northwest 446 513 36,000  Level FlightAware ADS-B
Tue 05:50:27 PM 38.9660 -89.4970 329° Northwest 446 513 36,000  Level FlightAware ADS-B
Tue 05:51:12 PM 39.0550 -89.5640 330° Northwest 456 525 36,000  Level FlightAware ADS-B
Tue 05:52:02 PM 39.1390 -89.6290 329° Northwest 455 524 36,000  Level FlightAware ADS-B
Tue 05:52:52 PM 39.2380 -89.7040 330° Northwest 456 525 36,000  Level FlightAware ADS-B
Tue 05:53:37 PM 39.3160 -89.7640 329° Northwest 456 525 36,000  Level FlightAware ADS-B
Tue 05:54:12 PM 39.3790 -89.8130 329° Northwest 456 525 36,000  Level FlightAware ADS-B
Tue 05:54:52 PM 39.4530 -89.8700 329° Northwest 455 524 36,000  Level FlightAware ADS-B
Tue 05:55:37 PM 39.5230 -89.9240 329° Northwest 455 524 36,000  Level FlightAware ADS-B
Tue 05:56:22 PM 39.6150 -89.9950 329° Northwest 452 520 36,000  Level FlightAware ADS-B
Tue 05:57:02 PM 39.6840 -90.0490 329° Northwest 451 519 36,000  Level FlightAware ADS-B
Tue 05:57:47 PM 39.7690 -90.1150 329° Northwest 451 519 36,000  Level FlightAware ADS-B
Tue 05:58:32 PM 39.8450 -90.1750 329° Northwest 450 518 36,000  Level FlightAware ADS-B
Tue 05:59:27 PM 39.9370 -90.2480 329° Northwest 450 518 36,000  Level FlightAware ADS-B
Tue 06:00:07 PM 40.0190 -90.3100 330° Northwest 452 520 36,000  Level FlightAware ADS-B
Tue 06:00:52 PM 40.1000 -90.3740 329° Northwest 453 521 36,000  Level FlightAware ADS-B
Tue 06:01:32 PM 40.1720 -90.4310 329° Northwest 454 522 36,000  Level FlightAware ADS-B
Tue 06:02:27 PM 40.2640 -90.5050 328° Northwest 454 522 36,000  Level FlightAware ADS-B
Tue 06:03:12 PM 40.3530 -90.5740 329° Northwest 456 525 36,000  Level FlightAware ADS-B
Tue 06:03:52 PM 40.4230 -90.6300 329° Northwest 457 526 36,000  Level FlightAware ADS-B
Tue 06:04:32 PM 40.4970 -90.6890 329° Northwest 456 525 36,000  Level FlightAware ADS-B
Tue 06:05:17 PM 40.5770 -90.7530 329° Northwest 456 525 36,000  Level FlightAware ADS-B
Tue 06:05:57 PM 40.6510 -90.8130 328° Northwest 456 525 36,000  Level FlightAware ADS-B
Tue 06:06:42 PM 40.7310 -90.8760 329° Northwest 451 519 36,000  Level FlightAware ADS-B
Tue 06:07:22 PM 40.8020 -90.9340 328° Northwest 440 506 36,000  Level FlightAware ADS-B
Tue 06:08:02 PM 40.8690 -90.9880 329° Northwest 436 502 36,000  Level FlightAware ADS-B
Tue 06:08:47 PM 40.9470 -91.0510 329° Northwest 434 499 36,000  Level FlightAware ADS-B
Tue 06:09:27 PM 41.0150 -91.1060 329° Northwest 431 496 36,000  Level FlightAware ADS-B
Tue 06:10:07 PM 41.0860 -91.1640 328° Northwest 431 496 36,000  Level FlightAware ADS-B
Tue 06:10:52 PM 41.1620 -91.2260 328° Northwest 432 497 36,000 -720 Level FlightAware ADS-B
Tue 06:11:47 PM 41.2540 -91.3010 329° Northwest 441 507 34,800 -1,263 Descending FlightAware ADS-B
Tue 06:12:27 PM 41.3240 -91.3580 329° Northwest 443 510 34,000 -565 Descending FlightAware ADS-B
Tue 06:13:12 PM 41.4030 -91.4240 328° Northwest 442 509 34,000  Level FlightAware ADS-B
Tue 06:13:52 PM 41.4710 -91.4790 329° Northwest 442 509 34,000  Level FlightAware ADS-B
Tue 06:14:37 PM 41.5540 -91.5480 328° Northwest 441 507 34,000  Level FlightAware ADS-B
Tue 06:15:17 PM 41.6170 -91.6000 328° Northwest 441 507 34,000  Level FlightAware ADS-B
Tue 06:16:02 PM 41.6980 -91.6680 328° Northwest 440 506 34,000  Level FlightAware ADS-B
Tue 06:16:42 PM 41.7680 -91.7260 328° Northwest 440 506 34,000  Level FlightAware ADS-B
Tue 06:17:22 PM 41.8360 -91.7830 328° Northwest 440 506 34,000  Level FlightAware ADS-B
Tue 06:18:07 PM 41.9150 -91.8490 328° Northwest 438 504 34,000  Level FlightAware ADS-B
Tue 06:18:47 PM 41.9850 -91.9070 328° Northwest 438 504 34,000  Level FlightAware ADS-B
Tue 06:19:32 PM 42.0620 -91.9720 328° Northwest 438 504 34,000  Level FlightAware ADS-B
Tue 06:20:07 PM 42.1200 -92.0220 327° Northwest 437 503 34,000  Level FlightAware ADS-B
Tue 06:20:52 PM 42.1970 -92.0870 328° Northwest 437 503 34,000  Level FlightAware ADS-B
Tue 06:21:37 PM 42.2730 -92.1510 328° Northwest 437 503 34,000  Level FlightAware ADS-B
Tue 06:22:17 PM 42.3460 -92.2130 328° Northwest 437 503 34,000  Level FlightAware ADS-B
Tue 06:23:02 PM 42.4210 -92.2780 327° Northwest 437 503 34,000  Level FlightAware ADS-B
Tue 06:23:42 PM 42.4870 -92.3340 328° Northwest 438 504 34,000  Level FlightAware ADS-B
Tue 06:24:22 PM 42.5570 -92.3950 327° Northwest 437 503 34,000  Level FlightAware ADS-B
Tue 06:25:07 PM 42.6350 -92.4670 326° Northwest 438 504 34,000  Level FlightAware ADS-B
Tue 06:25:47 PM 42.7020 -92.5250 328° Northwest 438 504 34,000  Level FlightAware ADS-B
Tue 06:26:27 PM 42.7720 -92.5870 327° Northwest 443 510 34,000  Level FlightAware ADS-B
Tue 06:27:12 PM 42.8520 -92.6410 334° Northwest 450 518 34,000  Level FlightAware ADS-B
Tue 06:27:57 PM 42.9420 -92.6890 339° North 449 517 34,000  Level FlightAware ADS-B
Tue 06:28:37 PM 43.0180 -92.7300 338° Northwest 451 519 34,000  Level FlightAware ADS-B
Tue 06:29:17 PM 43.0970 -92.7720 339° North 451 519 34,000  Level FlightAware ADS-B
Tue 06:30:02 PM 43.1820 -92.8180 338° Northwest 450 518 34,000 -565 Level FlightAware ADS-B
Tue 06:30:42 PM 43.2590 -92.8600 338° Northwest 444 511 33,200 -2,400 Descending FlightAware ADS-B
Tue 06:31:27 PM 43.3480 -92.9080 339° North 452 520 30,600 -3,106 Descending FlightAware ADS-B
Tue 06:32:07 PM 43.4250 -92.9500 338° Northwest 444 511 28,800 -3,225 Descending FlightAware ADS-B
Tue 06:32:47 PM 43.5030 -92.9920 339° North 451 519 26,300 -3,671 Descending FlightAware ADS-B
Tue 06:33:32 PM 43.5880 -93.0380 339° North 454 522 23,600 -3,600 Descending FlightAware ADS-B
Tue 06:34:12 PM 43.6670 -93.0810 339° North 453 521 21,200 -3,318 Descending FlightAware ADS-B
Tue 06:34:57 PM 43.7560 -93.1300 338° Northwest 444 511 18,900 -3,035 Descending FlightAware ADS-B
Tue 06:35:37 PM 43.8320 -93.1720 338° Northwest 434 499 16,900 -2,720 Descending FlightAware ADS-B
Tue 06:36:12 PM 43.8930 -93.2050 339° North 420 483 15,500 -2,612 Descending FlightAware ADS-B
Tue 06:37:02 PM 43.9840 -93.2490 341° North 407 468 13,200 -2,667 Descending FlightAware ADS-B
Tue 06:37:42 PM 44.0580 -93.2510 359° North 398 458 11,500 -2,118 Descending FlightAware ADS-B
Tue 06:38:27 PM 44.1410 -93.2420 North 372 428 10,200 -1,286 Descending FlightAware ADS-B
Tue 06:38:52 PM 44.1810 -93.2370 North 352 405 10,000 -218 Descending FlightAware ADS-B
Tue 06:39:22 PM 44.2300 -93.2320 North 348 400 10,000  Level FlightAware ADS-B
Tue 06:39:47 PM 44.2700 -93.2280 North 350 403 10,000  Level FlightAware ADS-B
Tue 06:40:17 PM 44.3200 -93.2230 North 351 404 10,000  Level FlightAware ADS-B
Tue 06:40:42 PM 44.3600 -93.2190 North 352 405 10,000  Level FlightAware ADS-B
Tue 06:41:12 PM 44.4060 -93.2160 North 351 404 10,000  Level FlightAware ADS-B
Tue 06:41:37 PM 44.4500 -93.2140 North 339 390 10,000  Level FlightAware ADS-B
Tue 06:41:57 PM 44.4810 -93.2120 North 341 392 10,000  Level FlightAware ADS-B
Tue 06:42:22 PM 44.5200 -93.2080 North 341 392 10,000  Level FlightAware ADS-B
Tue 06:42:52 PM 44.5680 -93.2030 North 344 396 10,000  Level FlightAware ADS-B
Tue 06:43:17 PM 44.6090 -93.2010 North 345 397 10,000 -109 Level FlightAware ADS-B
Tue 06:43:47 PM 44.6560 -93.1960 North 342 394 9,900 -533 Descending FlightAware ADS-B
Tue 06:44:02 PM 44.6780 -93.2000 353° North 333 383 9,600 -1,650 Descending FlightAware ADS-B
Tue 06:44:27 PM 44.7130 -93.2240 334° Northwest 326 375 8,800 -1,745 Descending FlightAware ADS-B
Tue 06:44:57 PM 44.7520 -93.2520 333° Northwest 320 368 8,000 -800 Descending FlightAware ADS-B
Tue 06:45:27 PM 44.7930 -93.2790 335° Northwest 290 334 8,000  Level FlightAware ADS-B
Tue 06:45:52 PM 44.8200 -93.3000 331° Northwest 253 291 8,000  Level FlightAware ADS-B
Tue 06:46:07 PM 44.8290 -93.3170 307° West 229 264 8,000  Level FlightAware ADS-B
Tue 06:46:32 PM 44.8390 -93.3510 293° West 216 249 8,000  Level FlightAware ADS-B
Tue 06:47:02 PM 44.8510 -93.3890 294° West 212 244 8,000  Level FlightAware ADS-B
Tue 06:47:32 PM 44.8630 -93.4280 293° West 210 242 8,000 -436 Level FlightAware ADS-B
Tue 06:47:57 PM 44.8750 -93.4560 301° West 212 244 7,600 -982 Descending FlightAware ADS-B
Tue 06:48:27 PM 44.8910 -93.4900 304° West 208 239 7,100 -1,091 Descending FlightAware ADS-B
Tue 06:48:52 PM 44.9040 -93.5190 302° West 209 241 6,600 -1,350 Descending FlightAware ADS-B
Tue 06:49:07 PM 44.9140 -93.5350 311° West 211 243 6,200 -1,333 Descending FlightAware ADS-B
Tue 06:49:37 PM 44.9400 -93.5550 331° Northwest 210 242 5,600 -1,050 Descending FlightAware ADS-B
Tue 06:49:47 PM 44.9500 -93.5590 344° North 212 244 5,500 -1,200 Descending FlightAware ADS-B
Tue 06:50:17 PM 44.9720 -93.5410 30° Northeast 200 230 4,800 -1,333 Descending FlightAware ADS-B
Tue 06:50:32 PM 44.9760 -93.5200 75° East 196 226 4,500 -1,200 Descending FlightAware ADS-B
Tue 06:51:02 PM 44.9780 -93.4810 86° East 198 228 3,900 -982 Descending FlightAware ADS-B
Tue 06:51:27 PM 44.9800 -93.4500 85° East 195 224 3,600 -933 Descending FlightAware ADS-B
Tue 06:51:47 PM 44.9810 -93.4260 87° East 191 220 3,200 -800 Descending FlightAware ADS-B
Tue 06:52:12 PM 44.9720 -93.3970 114° Southeast 191 220 3,000 -360 Descending FlightAware ADS-B
Tue 06:52:37 PM 44.9600 -93.3700 122° Southeast 189 217 2,900 -655 Descending FlightAware ADS-B
Tue 06:53:07 PM 44.9480 -93.3400 119° Southeast 163 188 2,400 -873 Descending FlightAware ADS-B
Tue 06:53:32 PM 44.9380 -93.3180 123° Southeast 149 171 2,100 -764 Descending FlightAware ADS-B
Tue 06:54:02 PM 44.9280 -93.2940 120° Southeast 142 163 1,700 -700 Descending FlightAware ADS-B
Tue 06:54:32 PM 44.9170 -93.2690 122° Southeast 145 167 1,400 -764 Descending FlightAware ADS-B
Tue 06:54:57 PM 44.9090 -93.2490 119° Southeast 143 165 1,000 -960 Descending FlightAware ADS-B

Login

Don't have an account? Register now (free) for customized features, flight alerts, and more!